createdAt,value
2022-11-18T00:02:03.094Z,95623.47
2022-11-18T00:05:05.934Z,95625.09
2022-11-18T00:08:08.707Z,95627.31
2022-11-18T00:11:12.911Z,95625.09
2022-11-18T00:14:22.813Z,95616.84
2022-11-18T00:17:26.859Z,95614.03
2022-11-18T00:20:29.663Z,95614.44
2022-11-18T00:23:32.547Z,95619.25
2022-11-18T00:26:36.201Z,95623.47
2022-11-18T00:29:43.323Z,95624.09
2022-11-18T00:32:47.560Z,95626.31
2022-11-18T00:35:54.618Z,95626.91
2022-11-18T00:38:57.442Z,95624.09
2022-11-18T00:42:17.449Z,95618.66
2022-11-18T00:45:20.451Z,95617.47
2022-11-18T00:48:24.942Z,95611.41
2022-11-18T00:51:27.806Z,95611.59
2022-11-18T00:54:30.842Z,95613.25
2022-11-18T00:57:33.566Z,95622.28
2022-11-18T01:00:36.548Z,95621.69
2022-11-18T01:03:40.768Z,95616.03
2022-11-18T01:06:43.533Z,95609.41
2022-11-18T01:09:47.140Z,95612.22
2022-11-18T01:13:07.442Z,95610.41
2022-11-18T01:16:10.229Z,95611.81
2022-11-18T01:19:14.436Z,95612.84
2022-11-18T01:22:17.412Z,95616.84
2022-11-18T01:25:20.227Z,95619.06
2022-11-18T01:28:24.144Z,95607.19
2022-11-18T01:31:27.210Z,95611.59
2022-11-18T01:34:31.343Z,95606.59
2022-11-18T01:37:34.124Z,95609.63
2022-11-18T01:40:36.980Z,95610.41
2022-11-18T01:43:50.386Z,95618.47
2022-11-18T01:46:53.141Z,95618.47
2022-11-18T01:49:57.662Z,95620.47
2022-11-18T01:53:03.058Z,95614.44
2022-11-18T01:56:08.220Z,95611.03
2022-11-18T01:59:12.762Z,95602.78
2022-11-18T02:02:16.031Z,95602.78
2022-11-18T02:05:20.382Z,95612.41
2022-11-18T02:08:23.546Z,95612.22
2022-11-18T02:11:40.498Z,95606.78
2022-11-18T02:14:45.140Z,95602.78
2022-11-18T02:17:53.968Z,95608.41
2022-11-18T02:21:02.588Z,95604.16
2022-11-18T02:24:23.878Z,95599.34
2022-11-18T02:27:41.806Z,95597.53
2022-11-18T02:30:50.051Z,95604.97
2022-11-18T02:33:55.862Z,95598.75
2022-11-18T02:37:00.819Z,95607.19
2022-11-18T02:40:06.457Z,95608.00
2022-11-18T02:43:11.364Z,95612.22
2022-11-18T02:46:17.643Z,95618.06
2022-11-18T02:49:23.445Z,95623.69
2022-11-18T02:52:28.159Z,95621.88
2022-11-18T02:55:32.618Z,95622.06
2022-11-18T02:58:35.404Z,95616.25
2022-11-18T03:01:39.523Z,95623.09
2022-11-18T03:04:42.381Z,95623.72
2022-11-18T03:07:47.745Z,95631.75
2022-11-18T03:10:53.857Z,95640.19
2022-11-18T03:14:07.910Z,95641.59
2022-11-18T03:17:14.733Z,95644.63
2022-11-18T03:20:21.146Z,95650.25
2022-11-18T03:23:27.215Z,95645.03
2022-11-18T03:26:32.594Z,95648.25
2022-11-18T03:29:38.161Z,95644.63
2022-11-18T03:32:43.987Z,95654.69
2022-11-18T03:35:48.349Z,95653.91
2022-11-18T03:38:52.540Z,95661.53
2022-11-18T03:41:57.056Z,95652.25
2022-11-18T03:45:01.834Z,95645.81
2022-11-18T03:48:10.787Z,95652.69
2022-11-18T03:51:15.849Z,95643.03
2022-11-18T03:54:21.911Z,95649.66
2022-11-18T03:57:28.126Z,95647.03
2022-11-18T04:00:34.135Z,95645.81
2022-11-18T04:03:38.789Z,95650.03
2022-11-18T04:06:44.316Z,95652.06
2022-11-18T04:09:49.448Z,95652.88
2022-11-18T04:12:54.662Z,95659.13
2022-11-18T04:15:57.547Z,95657.09
2022-11-18T04:19:06.226Z,95672.41
2022-11-18T04:22:09.900Z,95672.59
2022-11-18T04:25:12.691Z,95679.84
2022-11-18T04:28:15.467Z,95684.47
2022-11-18T04:31:18.637Z,95698.16
2022-11-18T04:34:22.879Z,95709.03
2022-11-18T04:37:25.631Z,95710.66
2022-11-18T04:40:28.404Z,95724.94
2022-11-18T04:43:31.262Z,95728.59
2022-11-18T04:46:34.003Z,95732.00
2022-11-18T04:49:38.149Z,95729.38
2022-11-18T04:52:40.952Z,95729.78
2022-11-18T04:55:43.733Z,95732.81
2022-11-18T04:58:47.566Z,95736.81
2022-11-18T05:01:50.760Z,95734.41
2022-11-18T05:04:54.847Z,95742.69
2022-11-18T05:07:57.529Z,95745.69
2022-11-18T05:11:20.781Z,95749.72
2022-11-18T05:14:22.559Z,95757.34
2022-11-18T05:17:25.368Z,95759.59
2022-11-18T05:20:29.504Z,95772.25
2022-11-18T05:23:32.281Z,95781.31
2022-11-18T05:26:35.003Z,95783.91
2022-11-18T05:29:38.224Z,95795.59
2022-11-18T05:32:41.172Z,95804.44
2022-11-18T05:35:45.346Z,95806.28
2022-11-18T05:38:48.446Z,95812.50
2022-11-18T05:42:08.854Z,95817.75
2022-11-18T05:45:11.596Z,95823.34
2022-11-18T05:48:14.335Z,95823.13
2022-11-18T05:51:18.420Z,95834.19
2022-11-18T05:54:22.259Z,95844.25
2022-11-18T05:57:25.288Z,95846.66
2022-11-18T06:00:28.496Z,95852.22
2022-11-18T06:03:33.011Z,95860.44
2022-11-18T06:06:37.129Z,95876.75
2022-11-18T06:09:42.385Z,95899.88
2022-11-18T06:12:46.818Z,95911.81
2022-11-18T06:15:49.621Z,95914.81
2022-11-18T06:18:52.486Z,95909.38
2022-11-18T06:21:56.552Z,95916.34
2022-11-18T06:24:59.335Z,95921.56
2022-11-18T06:28:03.422Z,95931.19
2022-11-18T06:31:06.354Z,95930.16
2022-11-18T06:34:09.028Z,95919.84
2022-11-18T06:37:16.759Z,95922.25
2022-11-18T06:40:19.704Z,95921.41
2022-11-18T06:43:41.647Z,95921.41
2022-11-18T06:46:59.983Z,95928.25
2022-11-18T06:50:02.693Z,95935.00
2022-11-18T06:53:06.899Z,95939.03
2022-11-18T06:56:10.815Z,95943.88
2022-11-18T06:59:13.813Z,95955.63
2022-11-18T07:02:18.913Z,95966.69
2022-11-18T07:05:21.619Z,95970.53
2022-11-18T07:08:25.756Z,95965.88
2022-11-18T07:11:28.683Z,95962.03
2022-11-18T07:14:31.715Z,95967.66
2022-11-18T07:17:34.391Z,95964.47
2022-11-18T07:20:37.085Z,95969.13
2022-11-18T07:23:41.208Z,95971.97
2022-11-18T07:26:44.330Z,95978.25
2022-11-18T07:29:47.010Z,95973.44
2022-11-18T07:32:49.678Z,95967.00
2022-11-18T07:35:52.373Z,95969.34
2022-11-18T07:38:57.213Z,95967.34
2022-11-18T07:41:59.903Z,95982.03
2022-11-18T07:45:02.564Z,95979.81
2022-11-18T07:48:05.412Z,95980.19
2022-11-18T07:51:08.176Z,95974.13
2022-11-18T07:54:12.919Z,95984.16
2022-11-18T07:57:15.595Z,95987.19
2022-11-18T08:00:18.889Z,95991.81
2022-11-18T08:03:21.738Z,95999.50
2022-11-18T08:06:24.496Z,96004.91
2022-11-18T08:09:28.571Z,96011.88
2022-11-18T08:12:31.585Z,96027.94
2022-11-18T08:15:34.347Z,96019.84
2022-11-18T08:18:37.050Z,96032.69
2022-11-18T08:21:39.750Z,96052.44
2022-11-18T08:24:43.923Z,96059.91
2022-11-18T08:27:46.664Z,96062.06
2022-11-18T08:30:49.380Z,96071.28
2022-11-18T08:33:55.341Z,96069.03
2022-11-18T08:36:58.226Z,96074.91
2022-11-18T08:40:02.376Z,96072.03
2022-11-18T08:43:05.108Z,96080.63
2022-11-18T08:46:07.867Z,96093.31
2022-11-18T08:49:10.616Z,96106.50
2022-11-18T08:52:13.336Z,96108.38
2022-11-18T08:55:17.471Z,96112.56
2022-11-18T08:58:20.202Z,96126.63
2022-11-18T09:01:22.926Z,96143.91
2022-11-18T09:04:25.745Z,96152.91
2022-11-18T09:07:28.513Z,96172.69
2022-11-18T09:10:34.442Z,96178.56
2022-11-18T09:17:00.169Z,96198.53
2022-11-18T09:20:02.961Z,96208.88
2022-11-18T09:23:05.726Z,96205.25
2022-11-18T09:26:10.629Z,96213.38
2022-11-18T09:29:13.433Z,96229.03
2022-11-18T09:32:16.198Z,96233.31
2022-11-18T09:35:19.173Z,96240.88
2022-11-18T09:38:21.973Z,96251.38
2022-11-18T09:41:36.321Z,96255.75
2022-11-18T09:44:46.348Z,96256.19
2022-11-18T09:47:49.408Z,96254.28
2022-11-18T09:50:53.757Z,96258.63
2022-11-18T09:53:56.448Z,96257.00
2022-11-18T09:57:00.728Z,96259.91
2022-11-18T10:00:03.769Z,96259.66
2022-11-18T10:03:17.196Z,96254.44
2022-11-18T10:06:23.979Z,96259.28
2022-11-18T10:09:29.262Z,96268.69
2022-11-18T10:12:37.006Z,96268.09
2022-11-18T10:15:44.703Z,96264.41
2022-11-18T10:19:00.420Z,96272.78
2022-11-18T10:22:21.064Z,96277.41
2022-11-18T10:25:26.646Z,96292.47
2022-11-18T10:28:32.199Z,96300.72
2022-11-18T10:31:37.493Z,96306.06
2022-11-18T10:34:47.469Z,96298.53
2022-11-18T10:38:07.940Z,96308.31
2022-11-18T10:41:13.930Z,96317.41
2022-11-18T10:44:34.363Z,96318.09
2022-11-18T10:47:38.483Z,96317.63
2022-11-18T10:50:49.240Z,96318.09
2022-11-18T10:54:08.038Z,96326.81
2022-11-18T10:57:16.214Z,96326.16
2022-11-18T11:00:48.778Z,96329.38
2022-11-18T11:03:59.710Z,96338.31
2022-11-18T11:07:15.015Z,96334.00
2022-11-18T11:10:23.229Z,96342.09
2022-11-18T11:13:27.948Z,96347.00
2022-11-18T11:16:31.538Z,96344.88
2022-11-18T11:19:41.990Z,96349.09
2022-11-18T11:22:44.720Z,96348.28
2022-11-18T11:29:19.938Z,96354.16
2022-11-18T11:32:28.871Z,96359.34
2022-11-18T11:35:35.732Z,96355.59
2022-11-18T11:38:44.378Z,96365.00
2022-11-18T11:41:50.245Z,96366.94
2022-11-18T11:45:01.064Z,96376.00
2022-11-18T11:48:16.405Z,96374.38
2022-11-18T11:51:24.685Z,96381.97
2022-11-18T11:54:36.621Z,96384.81
2022-11-18T11:57:43.329Z,96379.47
2022-11-18T12:00:50.650Z,96378.47
2022-11-18T12:03:56.986Z,96395.06
2022-11-18T12:07:01.308Z,96402.25
2022-11-18T12:10:10.218Z,96398.25
2022-11-18T12:13:19.897Z,96401.94
2022-11-18T12:16:26.093Z,96413.75
2022-11-18T12:19:28.841Z,96413.03
2022-11-18T12:22:46.351Z,96420.50
2022-11-18T12:25:54.450Z,96421.72
2022-11-18T12:29:17.252Z,96430.75
2022-11-18T12:32:42.219Z,96432.03
2022-11-18T12:35:48.163Z,96446.09
2022-11-18T12:38:52.482Z,96452.44
2022-11-18T12:42:15.099Z,96460.88
2022-11-18T12:45:51.379Z,96463.72
2022-11-18T12:48:54.283Z,96474.81
2022-11-18T12:51:57.563Z,96483.94
2022-11-18T12:55:03.958Z,96484.56
2022-11-18T13:01:36.940Z,96483.06
2022-11-18T13:04:44.955Z,96488.34
2022-11-18T13:08:09.475Z,96499.03
2022-11-18T13:11:34.177Z,96496.72
2022-11-18T13:14:57.943Z,96507.78
2022-11-18T13:18:08.608Z,96514.19
2022-11-18T13:21:25.189Z,96506.50
2022-11-18T13:24:27.847Z,96515.38
2022-11-18T13:27:36.386Z,96513.66
2022-11-18T13:30:44.820Z,96515.38
2022-11-18T13:33:48.992Z,96526.16
2022-11-18T13:36:52.496Z,96526.72
2022-11-18T13:39:55.594Z,96527.28
2022-11-18T13:42:58.430Z,96521.13
2022-11-18T13:46:02.156Z,96541.84
2022-11-18T13:49:06.453Z,96544.91
2022-11-18T13:52:11.038Z,96553.63
2022-11-18T13:55:19.877Z,96548.28
2022-11-18T13:58:30.808Z,96548.97
2022-11-18T14:01:35.646Z,96548.94
2022-11-18T14:04:46.790Z,96558.44
2022-11-18T14:08:01.344Z,96551.47
2022-11-18T14:11:04.169Z,96544.38
2022-11-18T14:14:07.723Z,96547.25
2022-11-18T14:17:17.882Z,96549.81
2022-11-18T14:20:22.095Z,96547.31
2022-11-18T14:23:28.483Z,96544.81
2022-11-18T14:26:32.362Z,96543.94
2022-11-18T14:29:35.108Z,96539.50
2022-11-18T14:32:37.820Z,96548.84
2022-11-18T14:35:43.332Z,96551.25
2022-11-18T14:39:11.297Z,96552.88
2022-11-18T14:42:12.373Z,96550.75
2022-11-18T14:45:15.160Z,96544.81
2022-11-18T14:48:20.432Z,96541.81
2022-11-18T14:51:24.538Z,96537.75
2022-11-18T14:54:28.089Z,96547.16
2022-11-18T14:57:31.182Z,96544.03
2022-11-18T15:00:33.877Z,96552.81
2022-11-18T15:03:36.650Z,96559.09
2022-11-18T15:06:41.108Z,96558.84
2022-11-18T15:09:43.827Z,96557.69
2022-11-18T15:12:46.445Z,96570.53
2022-11-18T15:15:49.233Z,96564.31
2022-11-18T15:18:52.741Z,96569.47
2022-11-18T15:21:56.767Z,96573.03
2022-11-18T15:24:59.448Z,96574.41
2022-11-18T15:28:02.180Z,96577.69
2022-11-18T15:31:04.946Z,96578.91
2022-11-18T15:34:07.958Z,96578.22
2022-11-18T15:37:13.318Z,96574.78
2022-11-18T15:40:16.025Z,96577.97
2022-11-18T15:43:18.663Z,96585.16
2022-11-18T15:46:22.171Z,96587.22
2022-11-18T15:49:24.918Z,96578.78
2022-11-18T15:52:29.006Z,96583.41
2022-11-18T15:55:31.813Z,96585.47
2022-11-18T15:58:36.095Z,96594.06
2022-11-18T16:01:39.809Z,96592.66
2022-11-18T16:04:42.598Z,96592.94
2022-11-18T16:07:52.738Z,96591.31
2022-11-18T16:11:15.269Z,96595.66
2022-11-18T16:14:19.223Z,96582.31
2022-11-18T16:17:22.263Z,96581.78
2022-11-18T16:20:24.975Z,96585.31
2022-11-18T16:23:29.239Z,96591.84
2022-11-18T16:26:32.439Z,96593.34
2022-11-18T16:29:35.163Z,96587.50
2022-11-18T16:32:37.959Z,96588.03
2022-11-18T16:35:46.784Z,96592.38
2022-11-18T16:38:50.848Z,96594.53
2022-11-18T16:41:53.983Z,96595.91
2022-11-18T16:44:56.657Z,96591.56
2022-11-18T16:47:59.390Z,96585.03
2022-11-18T16:51:12.839Z,96589.75
2022-11-18T16:54:19.160Z,96598.88
2022-11-18T16:57:22.675Z,96597.78
2022-11-18T17:00:50.166Z,96603.41
2022-11-18T17:03:50.975Z,96611.81
2022-11-18T17:06:54.052Z,96606.63
2022-11-18T17:09:58.182Z,96610.06
2022-11-18T17:13:00.986Z,96601.56
2022-11-18T17:16:07.432Z,96608.38
2022-11-18T17:19:13.605Z,96606.75
2022-11-18T17:22:16.211Z,96607.81
2022-11-18T17:25:20.200Z,96604.81
2022-11-18T17:28:22.887Z,96607.03
2022-11-18T17:31:26.213Z,96603.75
2022-11-18T17:34:29.354Z,96610.75
2022-11-18T17:37:31.986Z,96608.59
2022-11-18T17:40:35.999Z,96599.25
2022-11-18T17:43:38.691Z,96601.84
2022-11-18T17:46:41.702Z,96608.41
2022-11-18T17:49:44.659Z,96617.41
2022-11-18T17:52:47.319Z,96620.31
2022-11-18T17:55:51.399Z,96625.84
2022-11-18T17:58:54.171Z,96627.44
2022-11-18T18:01:59.506Z,96628.13
2022-11-18T18:05:02.821Z,96630.09
2022-11-18T18:08:09.860Z,96621.72
2022-11-18T18:11:14.897Z,96624.78
2022-11-18T18:14:18.043Z,96620.78
2022-11-18T18:17:21.175Z,96622.47
2022-11-18T18:20:24.278Z,96620.56
2022-11-18T18:23:26.995Z,96621.69
2022-11-18T18:26:32.025Z,96616.19
2022-11-18T18:29:35.000Z,96615.41
2022-11-18T18:32:38.006Z,96616.44
2022-11-18T18:35:41.421Z,96609.94
2022-11-18T18:38:44.645Z,96613.84
2022-11-18T18:41:48.689Z,96617.19
2022-11-18T18:45:08.945Z,96604.84
2022-11-18T18:48:11.689Z,96608.75
2022-11-18T18:51:14.403Z,96607.16
2022-11-18T18:54:18.782Z,96610.03
2022-11-18T18:57:23.075Z,96618.84
2022-11-18T19:00:25.808Z,96614.22
2022-11-18T19:03:28.564Z,96616.13
2022-11-18T19:09:54.813Z,96632.09
2022-11-18T19:12:58.784Z,96620.16
2022-11-18T19:16:05.192Z,96623.38
2022-11-18T19:19:08.519Z,96623.97
2022-11-18T19:22:12.018Z,96623.25
2022-11-18T19:25:14.844Z,96626.84
2022-11-18T19:28:18.906Z,96629.13
2022-11-18T19:31:21.597Z,96633.34
2022-11-18T19:34:24.692Z,96643.75
2022-11-18T19:37:27.563Z,96645.09
2022-11-18T19:40:30.496Z,96653.28
2022-11-18T19:43:34.704Z,96647.88
2022-11-18T19:46:37.349Z,96652.81
2022-11-18T19:49:40.476Z,96635.34
2022-11-18T19:52:43.144Z,96629.66
2022-11-18T19:55:53.526Z,96617.38
2022-11-18T19:58:59.019Z,96616.53
2022-11-18T20:02:01.705Z,96621.22
2022-11-18T20:05:21.917Z,96623.56
2022-11-18T20:08:25.714Z,96624.25
2022-11-18T20:11:28.774Z,96614.69
2022-11-18T20:14:32.807Z,96627.03
2022-11-18T20:17:35.451Z,96624.44
2022-11-18T20:20:38.576Z,96637.63
2022-11-18T20:23:41.344Z,96639.56
2022-11-18T20:26:44.254Z,96641.31
2022-11-18T20:29:48.379Z,96642.44
2022-11-18T20:32:51.684Z,96647.00
2022-11-18T20:35:54.633Z,96644.72
2022-11-18T20:38:58.393Z,96656.31
2022-11-18T20:42:18.622Z,96654.16
2022-11-18T20:45:22.663Z,96660.56
2022-11-18T20:48:25.348Z,96665.16
2022-11-18T20:51:28.928Z,96669.56
2022-11-18T20:54:31.643Z,96678.53
2022-11-18T20:57:34.230Z,96679.44
2022-11-18T21:00:38.427Z,96690.81
2022-11-18T21:03:41.818Z,96702.72
2022-11-18T21:06:45.350Z,96706.56
2022-11-18T21:09:47.999Z,96714.84
2022-11-18T21:13:07.756Z,96710.22
2022-11-18T21:16:11.905Z,96701.78
2022-11-18T21:19:14.695Z,96696.69
2022-11-18T21:22:17.545Z,96707.19
2022-11-18T21:25:20.288Z,96713.06
2022-11-18T21:28:23.180Z,96728.38
2022-11-18T21:31:27.878Z,96727.22
2022-11-18T21:34:30.946Z,96735.13
2022-11-18T21:37:33.952Z,96745.56
2022-11-18T21:40:36.734Z,96749.50
2022-11-18T21:47:04.156Z,96751.09
2022-11-18T21:50:07.458Z,96752.75
2022-11-18T21:53:10.296Z,96759.56
2022-11-18T21:56:13.586Z,96758.66
2022-11-18T21:59:16.607Z,96762.31
2022-11-18T22:02:21.935Z,96754.13
2022-11-18T22:05:24.694Z,96743.91
2022-11-18T22:08:27.755Z,96743.16
2022-11-18T22:11:30.656Z,96741.09
2022-11-18T22:14:33.715Z,96734.81
2022-11-18T22:17:37.688Z,96732.59
2022-11-18T22:20:41.151Z,96728.50
2022-11-18T22:23:44.009Z,96730.78
2022-11-18T22:26:46.668Z,96732.09
2022-11-18T22:29:49.336Z,96731.28
2022-11-18T22:32:53.320Z,96734.63
2022-11-18T22:35:59.745Z,96733.19
2022-11-18T22:39:02.585Z,96737.41
2022-11-18T22:42:22.752Z,96748.00
2022-11-18T22:45:25.462Z,96749.03
2022-11-18T22:48:29.791Z,96752.16
2022-11-18T22:51:32.934Z,96744.44
2022-11-18T22:54:39.933Z,96734.09
2022-11-18T22:57:44.186Z,96736.91
2022-11-18T23:00:47.893Z,96743.97
2022-11-18T23:03:53.401Z,96737.88
2022-11-18T23:06:56.142Z,96738.81
2022-11-18T23:10:00.482Z,96737.66
2022-11-18T23:13:20.694Z,96743.06
2022-11-18T23:16:24.002Z,96746.31
2022-11-18T23:19:28.037Z,96740.00
2022-11-18T23:22:31.034Z,96732.50
2022-11-18T23:25:33.675Z,96733.91
2022-11-18T23:28:37.601Z,96740.44
2022-11-18T23:31:42.838Z,96741.19
2022-11-18T23:34:48.295Z,96740.25
2022-11-18T23:37:50.999Z,96745.41
2022-11-18T23:40:55.187Z,96756.19
2022-11-18T23:43:57.872Z,96758.06
2022-11-18T23:47:00.539Z,96753.84
2022-11-18T23:50:04.731Z,96759.22
2022-11-18T23:53:07.372Z,96766.75
2022-11-18T23:56:11.269Z,96769.22
2022-11-18T23:59:14.278Z,96768.63
